createdAt,value
2023-01-18T00:00:09.088Z,976.7
2023-01-18T00:01:25.385Z,976.8
2023-01-18T00:02:41.674Z,976.8
2023-01-18T00:03:57.973Z,976.9
2023-01-18T00:05:14.275Z,976.9
2023-01-18T00:06:29.573Z,976.9
2023-01-18T00:07:45.858Z,976.9
2023-01-18T00:09:02.156Z,976.9
2023-01-18T00:10:18.438Z,976.9
2023-01-18T00:11:34.754Z,976.9
2023-01-18T00:12:51.032Z,976.8
2023-01-18T00:14:07.349Z,976.8
2023-01-18T00:15:23.627Z,976.9
2023-01-18T00:16:39.902Z,976.9
2023-01-18T00:17:56.206Z,976.9
2023-01-18T00:19:12.494Z,976.9
2023-01-18T00:20:28.805Z,976.9
2023-01-18T00:21:45.088Z,977
2023-01-18T00:23:00.386Z,977
2023-01-18T00:24:16.682Z,977.1
2023-01-18T00:25:32.980Z,977.1
2023-01-18T00:26:49.293Z,977.1
2023-01-18T00:28:05.562Z,977.1
2023-01-18T00:29:21.855Z,977.2
2023-01-18T00:30:38.188Z,977.2
2023-01-18T00:31:54.466Z,977.2
2023-01-18T00:33:10.752Z,977.2
2023-01-18T00:34:27.046Z,977.2
2023-01-18T00:35:43.349Z,977.2
2023-01-18T00:36:59.623Z,977.3
2023-01-18T00:38:15.938Z,977.3
2023-01-18T00:39:31.223Z,977.2
2023-01-18T00:40:47.548Z,977.2
2023-01-18T00:42:03.825Z,977.2
2023-01-18T00:43:20.122Z,977.2
2023-01-18T00:44:36.438Z,977.3
2023-01-18T00:45:52.695Z,977.3
2023-01-18T00:47:08.987Z,977.2
2023-01-18T00:48:25.302Z,977.2
2023-01-18T00:49:41.592Z,977.2
2023-01-18T00:50:57.883Z,977.2
2023-01-18T00:52:14.173Z,977.2
2023-01-18T00:53:30.466Z,977.1
2023-01-18T00:54:46.789Z,977.2
2023-01-18T00:56:02.061Z,977.2
2023-01-18T00:57:18.377Z,977.2
2023-01-18T00:58:34.662Z,977.2
2023-01-18T00:59:50.942Z,977.2
2023-01-18T01:01:07.274Z,977.2
2023-01-18T01:02:23.557Z,977.2
2023-01-18T01:03:39.821Z,977.2
2023-01-18T01:04:56.142Z,977.2
2023-01-18T01:06:12.410Z,977.2
2023-01-18T01:07:28.705Z,977.1
2023-01-18T01:08:45.018Z,977.1
2023-01-18T01:10:01.314Z,977.1
2023-01-18T01:11:17.597Z,977.1
2023-01-18T01:12:32.906Z,977.2
2023-01-18T01:13:49.199Z,977.2
2023-01-18T01:15:05.484Z,977.2
2023-01-18T01:16:21.790Z,977.2
2023-01-18T01:17:38.095Z,977.2
2023-01-18T01:18:54.364Z,977.3
2023-01-18T01:20:10.687Z,977.3
2023-01-18T01:21:26.992Z,977.2
2023-01-18T01:22:43.274Z,977.2
2023-01-18T01:23:59.542Z,977.3
2023-01-18T01:25:15.860Z,977.3
2023-01-18T01:26:32.155Z,977.3
2023-01-18T01:27:48.450Z,977.2
2023-01-18T01:29:03.773Z,977.2
2023-01-18T01:30:20.048Z,977.2
2023-01-18T01:31:36.324Z,977.3
2023-01-18T01:32:52.647Z,977.3
2023-01-18T01:34:08.906Z,977.3
2023-01-18T01:35:25.228Z,977.3
2023-01-18T01:36:41.496Z,977.3
2023-01-18T01:37:57.792Z,977.3
2023-01-18T01:39:14.119Z,977.3
2023-01-18T01:40:30.377Z,977.2
2023-01-18T01:41:46.694Z,977.3
2023-01-18T01:43:02.967Z,977.3
2023-01-18T01:44:19.265Z,977.2
2023-01-18T01:45:34.574Z,977.2
2023-01-18T01:46:50.866Z,977.3
2023-01-18T01:48:07.177Z,977.3
2023-01-18T01:49:23.458Z,977.3
2023-01-18T01:50:39.748Z,977.3
2023-01-18T01:51:56.037Z,977.3
2023-01-18T01:53:12.357Z,977.2
2023-01-18T01:54:28.659Z,977.3
2023-01-18T01:55:44.921Z,977.3
2023-01-18T01:57:01.239Z,977.3
2023-01-18T01:58:17.510Z,977.3
2023-01-18T01:59:33.000Z,977.3
2023-01-18T02:00:50.097Z,977.3
2023-01-18T02:02:05.404Z,977.3
2023-01-18T02:03:21.704Z,977.3
2023-01-18T02:04:37.997Z,977.4
2023-01-18T02:05:54.302Z,977.4
2023-01-18T02:07:10.612Z,977.4
2023-01-18T02:08:26.876Z,977.5
2023-01-18T02:09:43.187Z,977.4
2023-01-18T02:10:59.466Z,977.4
2023-01-18T02:12:15.790Z,977.4
2023-01-18T02:13:32.083Z,977.5
2023-01-18T02:14:48.352Z,977.5
2023-01-18T02:16:04.637Z,977.4
2023-01-18T02:17:20.957Z,977.4
2023-01-18T02:18:36.272Z,977.4
2023-01-18T02:19:52.572Z,977.3
2023-01-18T02:21:08.851Z,977.3
2023-01-18T02:22:25.136Z,977.3
2023-01-18T02:23:41.416Z,977.3
2023-01-18T02:24:57.713Z,977.3
2023-01-18T02:26:14.013Z,977.3
2023-01-18T02:27:30.306Z,977.3
2023-01-18T02:28:46.633Z,977.3
2023-01-18T02:30:02.896Z,977.3
2023-01-18T02:31:19.188Z,977.3
2023-01-18T02:32:35.490Z,977.3
2023-01-18T02:33:51.799Z,977.3
2023-01-18T02:35:07.081Z,977.4
2023-01-18T02:36:23.404Z,977.3
2023-01-18T02:37:39.663Z,977.4
2023-01-18T02:38:55.969Z,977.4
2023-01-18T02:40:12.277Z,977.4
2023-01-18T02:41:28.573Z,977.5
2023-01-18T02:42:44.864Z,977.4
2023-01-18T02:44:01.144Z,977.4
2023-01-18T02:45:17.442Z,977.4
2023-01-18T02:46:33.732Z,977.5
2023-01-18T02:47:50.033Z,977.4
2023-01-18T02:49:06.312Z,977.4
2023-01-18T02:50:22.614Z,977.4
2023-01-18T02:51:37.947Z,977.4
2023-01-18T02:52:54.217Z,977.4
2023-01-18T02:54:10.528Z,977.4
2023-01-18T02:55:26.826Z,977.4
2023-01-18T02:56:43.089Z,977.4
2023-01-18T02:57:59.391Z,977.4
2023-01-18T02:59:15.708Z,977.4
2023-01-18T03:00:31.986Z,977.4
2023-01-18T03:01:48.278Z,977.4
2023-01-18T03:03:04.566Z,977.4
2023-01-18T03:04:20.881Z,977.4
2023-01-18T03:05:37.147Z,977.4
2023-01-18T03:06:53.469Z,977.4
2023-01-18T03:08:08.772Z,977.4
2023-01-18T03:09:25.077Z,977.4
2023-01-18T03:10:41.375Z,977.4
2023-01-18T03:11:57.656Z,977.3
2023-01-18T03:13:13.934Z,977.4
2023-01-18T03:14:30.254Z,977.4
2023-01-18T03:15:46.520Z,977.3
2023-01-18T03:17:02.816Z,977.3
2023-01-18T03:18:19.107Z,977.3
2023-01-18T03:19:35.420Z,977.3
2023-01-18T03:20:51.725Z,977.3
2023-01-18T03:22:08.013Z,977.3
2023-01-18T03:23:24.288Z,977.2
2023-01-18T03:24:39.622Z,977.3
2023-01-18T03:25:55.890Z,977.3
2023-01-18T03:27:12.184Z,977.3
2023-01-18T03:28:28.470Z,977.2
2023-01-18T03:29:44.761Z,977.3
2023-01-18T03:31:01.057Z,977.3
2023-01-18T03:32:17.381Z,977.3
2023-01-18T03:33:33.678Z,977.3
2023-01-18T03:34:49.949Z,977.3
2023-01-18T03:36:06.256Z,977.3
2023-01-18T03:37:22.546Z,977.3
2023-01-18T03:38:38.819Z,977.3
2023-01-18T03:39:55.151Z,977.3
2023-01-18T03:41:10.424Z,977.3
2023-01-18T03:42:26.715Z,977.3
2023-01-18T03:43:43.047Z,977.3
2023-01-18T03:44:59.308Z,977.3
2023-01-18T03:46:15.632Z,977.3
2023-01-18T03:47:31.888Z,977.3
2023-01-18T03:48:47.207Z,977.3
2023-01-18T03:50:03.508Z,977.4
2023-01-18T03:51:19.792Z,977.2
2023-01-18T03:52:36.122Z,977.3
2023-01-18T03:53:52.378Z,977.3
2023-01-18T03:55:08.699Z,977.3
2023-01-18T03:56:24.986Z,977.3
2023-01-18T03:57:41.267Z,977.2
2023-01-18T03:58:57.577Z,977.2
2023-01-18T04:00:13.883Z,977.2
2023-01-18T04:01:30.157Z,977.2
2023-01-18T04:02:46.440Z,977.2
2023-01-18T04:04:02.756Z,977.2
2023-01-18T04:05:18.078Z,977.2
2023-01-18T04:06:34.348Z,977.3
2023-01-18T04:07:50.634Z,977.3
2023-01-18T04:09:06.921Z,977.3
2023-01-18T04:10:23.254Z,977.3
2023-01-18T04:11:39.548Z,977.3
2023-01-18T04:12:55.814Z,977.3
2023-01-18T04:14:12.138Z,977.3
2023-01-18T04:15:28.418Z,977.3
2023-01-18T04:16:44.719Z,977.3
2023-01-18T04:18:01.008Z,977.3
2023-01-18T04:19:17.281Z,977.3
2023-01-18T04:20:33.567Z,977.3
2023-01-18T04:21:48.907Z,977.3
2023-01-18T04:23:05.177Z,977.3
2023-01-18T04:24:21.502Z,977.3
2023-01-18T04:25:37.791Z,977.3
2023-01-18T04:26:54.075Z,977.2
2023-01-18T04:28:10.355Z,977.3
2023-01-18T04:29:26.665Z,977.3
2023-01-18T04:30:42.930Z,977.3
2023-01-18T04:31:59.249Z,977.3
2023-01-18T04:33:15.553Z,977.4
2023-01-18T04:34:31.812Z,977.3
2023-01-18T04:35:48.107Z,977.4
2023-01-18T04:37:04.444Z,977.4
2023-01-18T04:38:19.735Z,977.4
2023-01-18T04:39:36.003Z,977.4
2023-01-18T04:40:52.336Z,977.4
2023-01-18T04:42:08.616Z,977.4
2023-01-18T04:43:24.903Z,977.4
2023-01-18T04:44:41.217Z,977.5
2023-01-18T04:45:57.472Z,977.4
2023-01-18T04:47:13.791Z,977.4
2023-01-18T04:48:30.068Z,977.4
2023-01-18T04:49:46.381Z,977.4
2023-01-18T04:51:02.653Z,977.5
2023-01-18T04:52:18.947Z,977.5
2023-01-18T04:53:35.242Z,977.4
2023-01-18T04:54:50.564Z,977.4
2023-01-18T04:56:06.877Z,977.4
2023-01-18T04:57:23.135Z,977.4
2023-01-18T04:58:39.425Z,977.4
2023-01-18T04:59:55.756Z,977.4
2023-01-18T05:01:12.019Z,977.4
2023-01-18T05:02:28.307Z,977.4
2023-01-18T05:03:44.629Z,977.4
2023-01-18T05:05:00.931Z,977.4
2023-01-18T05:06:17.189Z,977.4
2023-01-18T05:07:33.511Z,977.4
2023-01-18T05:08:49.780Z,977.4
2023-01-18T05:10:06.085Z,977.4
2023-01-18T05:11:21.384Z,977.4
2023-01-18T05:12:37.680Z,977.5
2023-01-18T05:13:53.970Z,977.5
2023-01-18T05:15:10.299Z,977.5
2023-01-18T05:16:26.559Z,977.5
2023-01-18T05:17:42.878Z,977.5
2023-01-18T05:18:59.146Z,977.5
2023-01-18T05:20:15.439Z,977.4
2023-01-18T05:21:31.732Z,977.5
2023-01-18T05:22:48.034Z,977.4
2023-01-18T05:24:04.343Z,977.4
2023-01-18T05:25:20.618Z,977.5
2023-01-18T05:26:36.936Z,977.5
2023-01-18T05:27:52.250Z,977.5
2023-01-18T05:29:08.529Z,977.5
2023-01-18T05:30:24.808Z,977.5
2023-01-18T05:31:41.121Z,977.6
2023-01-18T05:32:57.422Z,977.6
2023-01-18T05:34:13.689Z,977.6
2023-01-18T05:35:29.987Z,977.6
2023-01-18T05:36:46.231Z,977.6
2023-01-18T05:38:02.553Z,977.6
2023-01-18T05:39:18.843Z,977.6
2023-01-18T05:40:35.112Z,977.6
2023-01-18T05:41:51.396Z,977.7
2023-01-18T05:43:07.691Z,977.7
2023-01-18T05:44:23.003Z,977.6
2023-01-18T05:45:39.300Z,977.7
2023-01-18T05:46:55.613Z,977.7
2023-01-18T05:48:11.894Z,977.7
2023-01-18T05:49:28.203Z,977.8
2023-01-18T05:50:44.502Z,977.8
2023-01-18T05:52:00.767Z,977.9
2023-01-18T05:53:17.098Z,977.9
2023-01-18T05:54:33.375Z,978
2023-01-18T05:55:49.659Z,978
2023-01-18T05:57:05.979Z,978
2023-01-18T05:58:22.228Z,978
2023-01-18T05:59:38.532Z,978.1
2023-01-18T06:00:54.965Z,978.1
2023-01-18T06:02:11.236Z,978.1
2023-01-18T06:03:27.528Z,978.1
2023-01-18T06:04:43.826Z,978.1
2023-01-18T06:06:00.123Z,978.1
2023-01-18T06:07:16.435Z,978.1
2023-01-18T06:08:32.731Z,978.1
2023-01-18T06:09:49.010Z,978.1
2023-01-18T06:11:05.295Z,978.1
2023-01-18T06:12:21.583Z,978.1
2023-01-18T06:13:37.892Z,978.2
2023-01-18T06:14:54.199Z,978.1
2023-01-18T06:16:10.491Z,978.1
2023-01-18T06:17:25.787Z,978.1
2023-01-18T06:18:42.074Z,978.1
2023-01-18T06:19:58.365Z,978.1
2023-01-18T06:21:14.658Z,978.1
2023-01-18T06:22:30.996Z,978.2
2023-01-18T06:23:47.251Z,978.1
2023-01-18T06:25:03.582Z,978.2
2023-01-18T06:26:19.838Z,978.1
2023-01-18T06:27:36.158Z,978.2
2023-01-18T06:28:52.420Z,978.2
2023-01-18T06:30:08.724Z,978.2
2023-01-18T06:31:25.020Z,978.2
2023-01-18T06:32:41.307Z,978.2
2023-01-18T06:33:56.612Z,978.2
2023-01-18T06:35:12.902Z,978.3
2023-01-18T06:36:29.202Z,978.3
2023-01-18T06:37:45.506Z,978.3
2023-01-18T06:39:01.810Z,978.3
2023-01-18T06:40:18.080Z,978.3
2023-01-18T06:41:34.391Z,978.4
2023-01-18T06:42:50.683Z,978.4
2023-01-18T06:44:06.935Z,978.4
2023-01-18T06:45:23.206Z,978.5
2023-01-18T06:46:39.520Z,978.4
2023-01-18T06:47:55.821Z,978.5
2023-01-18T06:49:12.042Z,978.6
2023-01-18T06:50:27.328Z,978.6
2023-01-18T06:51:43.549Z,978.6
2023-01-18T06:52:59.778Z,978.6
2023-01-18T06:54:16.073Z,978.6
2023-01-18T06:55:32.364Z,978.6
2023-01-18T06:56:48.655Z,978.6
2023-01-18T06:58:04.921Z,978.6
2023-01-18T06:59:21.156Z,978.6
2023-01-18T07:00:37.418Z,978.6
2023-01-18T07:01:53.674Z,978.6
2023-01-18T07:03:09.890Z,978.7
2023-01-18T07:04:26.117Z,978.7
2023-01-18T07:05:42.387Z,978.7
2023-01-18T07:06:57.622Z,978.8
2023-01-18T07:08:13.865Z,978.8
2023-01-18T07:09:30.101Z,978.8
2023-01-18T07:10:46.374Z,978.9
2023-01-18T07:12:02.609Z,978.9
2023-01-18T07:13:18.849Z,978.9
2023-01-18T07:14:35.062Z,978.9
2023-01-18T07:15:51.297Z,978.9
2023-01-18T07:17:07.546Z,978.9
2023-01-18T07:18:23.799Z,979
2023-01-18T07:19:40.015Z,979
2023-01-18T07:20:56.275Z,979
2023-01-18T07:22:12.503Z,979
2023-01-18T07:23:27.783Z,979
2023-01-18T07:24:43.993Z,979.1
2023-01-18T07:26:00.225Z,979.1
2023-01-18T07:27:16.505Z,979.1
2023-01-18T07:28:32.722Z,979.1
2023-01-18T07:29:48.978Z,979.1
2023-01-18T07:31:05.187Z,979.1
2023-01-18T07:32:21.450Z,979.1
2023-01-18T07:33:37.699Z,979.1
2023-01-18T07:34:53.919Z,979.2
2023-01-18T07:36:10.154Z,979.1
2023-01-18T07:37:26.399Z,979.2
2023-01-18T07:38:42.639Z,979.2
2023-01-18T07:39:57.888Z,979.2
2023-01-18T07:41:14.126Z,979.2
2023-01-18T07:42:30.362Z,979.3
2023-01-18T07:43:46.605Z,979.3
2023-01-18T07:45:02.845Z,979.3
2023-01-18T07:46:19.076Z,979.3
2023-01-18T07:47:35.353Z,979.3
2023-01-18T07:48:51.562Z,979.3
2023-01-18T07:50:07.796Z,979.3
2023-01-18T07:51:24.075Z,979.3
2023-01-18T07:52:40.293Z,979.2
2023-01-18T07:53:56.544Z,979.3
2023-01-18T07:55:12.791Z,979.3
2023-01-18T07:56:28.012Z,979.3
2023-01-18T07:57:44.277Z,979.3
2023-01-18T07:59:00.501Z,979.3
2023-01-18T08:00:16.761Z,979.3
2023-01-18T08:01:32.975Z,979.3
2023-01-18T08:02:49.227Z,979.3
2023-01-18T08:04:04.475Z,979.3
2023-01-18T08:05:20.731Z,979.3
2023-01-18T08:06:36.962Z,979.2
2023-01-18T08:07:53.201Z,979.3
2023-01-18T08:09:09.438Z,979.3
2023-01-18T08:10:25.690Z,979.3
2023-01-18T08:11:41.911Z,979.3
2023-01-18T08:12:58.160Z,979.3
2023-01-18T08:14:14.398Z,979.3
2023-01-18T08:15:30.663Z,979.3
2023-01-18T08:16:46.885Z,979.3
2023-01-18T08:18:03.147Z,979.3
2023-01-18T08:19:19.351Z,979.3
2023-01-18T08:20:34.611Z,979.4
2023-01-18T08:21:50.848Z,979.4
2023-01-18T08:23:07.091Z,979.4
2023-01-18T08:24:23.362Z,979.4
2023-01-18T08:25:39.609Z,979.4
2023-01-18T08:26:55.853Z,979.5
2023-01-18T08:28:12.052Z,979.5
2023-01-18T08:29:28.322Z,979.5
2023-01-18T08:30:44.559Z,979.5
2023-01-18T08:32:00.803Z,979.5
2023-01-18T08:33:17.038Z,979.5
2023-01-18T08:34:33.279Z,979.5
2023-01-18T08:35:49.503Z,979.5
2023-01-18T08:37:04.748Z,979.5
2023-01-18T08:38:21.011Z,979.6
2023-01-18T08:39:37.233Z,979.5
2023-01-18T08:40:53.493Z,979.6
2023-01-18T08:42:09.731Z,979.6
2023-01-18T08:43:25.940Z,979.6
2023-01-18T08:44:42.184Z,979.6
2023-01-18T08:45:58.453Z,979.6
2023-01-18T08:47:14.673Z,979.7
2023-01-18T08:48:30.936Z,979.7
2023-01-18T08:49:47.140Z,979.7
2023-01-18T08:51:03.379Z,979.6
2023-01-18T08:52:19.648Z,979.7
2023-01-18T08:53:34.884Z,979.7
2023-01-18T08:54:51.149Z,979.7
2023-01-18T08:56:07.384Z,979.7
2023-01-18T08:57:23.625Z,979.7
2023-01-18T08:58:39.850Z,979.8
2023-01-18T08:59:56.079Z,979.8
2023-01-18T09:01:12.349Z,979.8
2023-01-18T09:02:28.590Z,979.7
2023-01-18T09:03:44.800Z,979.8
2023-01-18T09:05:01.065Z,979.8
2023-01-18T09:06:17.282Z,979.8
2023-01-18T09:07:33.518Z,979.8
2023-01-18T09:08:49.787Z,979.8
2023-01-18T09:10:05.044Z,979.9
2023-01-18T09:11:21.282Z,979.8
2023-01-18T09:12:37.497Z,979.9
2023-01-18T09:13:53.734Z,979.9
2023-01-18T09:15:09.978Z,979.9
2023-01-18T09:16:26.217Z,979.9
2023-01-18T09:17:42.479Z,979.9
2023-01-18T09:18:58.723Z,979.9
2023-01-18T09:20:14.956Z,980
2023-01-18T09:21:31.186Z,979.9
2023-01-18T09:22:47.412Z,980
2023-01-18T09:24:03.650Z,980
2023-01-18T09:25:19.898Z,980
2023-01-18T09:26:35.171Z,980
2023-01-18T09:27:51.389Z,980
2023-01-18T09:29:07.664Z,980
2023-01-18T09:30:23.896Z,980
2023-01-18T09:31:40.142Z,980.1
2023-01-18T09:32:56.386Z,980.1
2023-01-18T09:34:12.583Z,980.1
2023-01-18T09:35:28.827Z,980.1
2023-01-18T09:36:45.065Z,980.1
2023-01-18T09:38:01.330Z,980.1
2023-01-18T09:39:17.555Z,980.1
2023-01-18T09:40:33.818Z,980.1
2023-01-18T09:41:50.059Z,980.1
2023-01-18T09:43:05.285Z,980.1
2023-01-18T09:44:21.527Z,980.1
2023-01-18T09:45:37.788Z,980.1
2023-01-18T09:46:54.034Z,980.1
2023-01-18T09:48:10.239Z,980.2
2023-01-18T09:49:26.515Z,980.2
2023-01-18T09:50:42.748Z,980.3
2023-01-18T09:51:58.974Z,980.3
2023-01-18T09:53:15.234Z,980.2
2023-01-18T09:54:31.447Z,980.3
2023-01-18T09:55:47.691Z,980.2
2023-01-18T09:57:03.920Z,980.3
2023-01-18T09:58:20.157Z,980.2
2023-01-18T09:59:35.423Z,980.3
2023-01-18T10:00:51.682Z,980.3
2023-01-18T10:02:07.898Z,980.3
2023-01-18T10:03:24.169Z,980.3
2023-01-18T10:04:40.387Z,980.3
2023-01-18T10:05:56.646Z,980.3
2023-01-18T10:07:12.851Z,980.3
2023-01-18T10:08:29.133Z,980.2
2023-01-18T10:09:45.331Z,980.2
2023-01-18T10:11:01.577Z,980.3
2023-01-18T10:12:17.845Z,980.3
2023-01-18T10:13:34.082Z,980.4
2023-01-18T10:14:50.309Z,980.3
2023-01-18T10:16:05.559Z,980.4
2023-01-18T10:17:21.786Z,980.4
2023-01-18T10:18:38.065Z,980.4
2023-01-18T10:19:54.296Z,980.4
2023-01-18T10:21:10.543Z,980.4
2023-01-18T10:22:26.746Z,980.4
2023-01-18T10:23:42.986Z,980.4
2023-01-18T10:24:59.226Z,980.4
2023-01-18T10:26:15.480Z,980.5
2023-01-18T10:27:31.716Z,980.5
2023-01-18T10:28:47.961Z,980.5
2023-01-18T10:30:04.190Z,980.5
2023-01-18T10:31:20.457Z,980.5
2023-01-18T10:32:35.682Z,980.5
2023-01-18T10:33:51.951Z,980.5
2023-01-18T10:35:08.163Z,980.5
2023-01-18T10:36:24.401Z,980.5
2023-01-18T10:37:40.671Z,980.5
2023-01-18T10:38:56.884Z,980.5
2023-01-18T10:40:13.162Z,980.6
2023-01-18T10:41:29.396Z,980.5
2023-01-18T10:42:45.631Z,980.6
2023-01-18T10:44:01.869Z,980.6
2023-01-18T10:45:18.087Z,980.6
2023-01-18T10:46:34.318Z,980.6
2023-01-18T10:47:50.604Z,980.5
2023-01-18T10:49:05.849Z,980.6
2023-01-18T10:50:22.084Z,980.6
2023-01-18T10:51:38.300Z,980.6
2023-01-18T10:52:54.574Z,980.7
2023-01-18T10:54:10.783Z,980.6
2023-01-18T10:55:27.014Z,980.7
2023-01-18T10:56:43.259Z,980.7
2023-01-18T10:57:59.537Z,980.7
2023-01-18T10:59:15.735Z,980.7
2023-01-18T11:00:31.989Z,980.7
2023-01-18T11:01:48.224Z,980.7
2023-01-18T11:03:04.000Z,980.8
2023-01-18T11:04:20.724Z,980.8
2023-01-18T11:05:35.981Z,980.7
2023-01-18T11:06:52.227Z,980.8
2023-01-18T11:08:08.430Z,980.8
2023-01-18T11:09:24.682Z,980.8
2023-01-18T11:10:40.956Z,980.8
2023-01-18T11:11:57.183Z,980.8
2023-01-18T11:13:13.392Z,980.8
2023-01-18T11:14:29.647Z,980.8
2023-01-18T11:15:45.880Z,980.8
2023-01-18T11:17:02.110Z,980.8
2023-01-18T11:18:18.364Z,980.8
2023-01-18T11:19:34.592Z,980.9
2023-01-18T11:20:50.841Z,980.9
2023-01-18T11:22:06.113Z,980.9
2023-01-18T11:23:22.355Z,980.9
2023-01-18T11:24:38.607Z,980.9
2023-01-18T11:25:54.810Z,980.9
2023-01-18T11:27:11.052Z,980.8
2023-01-18T11:28:27.291Z,980.9
2023-01-18T11:29:43.562Z,980.9
2023-01-18T11:30:59.794Z,981
2023-01-18T11:32:16.033Z,980.9
2023-01-18T11:33:32.256Z,980.9
2023-01-18T11:34:48.529Z,980.9
2023-01-18T11:36:04.756Z,980.9
2023-01-18T11:37:20.992Z,980.9
2023-01-18T11:38:36.232Z,981
2023-01-18T11:39:52.469Z,981
2023-01-18T11:41:08.706Z,981
2023-01-18T11:42:24.942Z,981
2023-01-18T11:43:41.208Z,981
2023-01-18T11:44:57.455Z,981
2023-01-18T11:46:13.661Z,981
2023-01-18T11:47:29.905Z,981
2023-01-18T11:48:46.148Z,981
2023-01-18T11:50:02.415Z,981.1
2023-01-18T11:51:18.624Z,981
2023-01-18T11:52:34.856Z,981.1
2023-01-18T11:53:51.139Z,981.1
2023-01-18T11:55:07.367Z,981
2023-01-18T11:56:22.639Z,981.1
2023-01-18T11:57:38.874Z,981.1
2023-01-18T11:58:55.113Z,981.1
2023-01-18T12:00:11.343Z,981.1
2023-01-18T12:01:27.587Z,981.1
2023-01-18T12:02:43.822Z,981.1
2023-01-18T12:04:00.047Z,981.1
2023-01-18T12:05:16.315Z,981.1
2023-01-18T12:06:32.509Z,981.2
2023-01-18T12:07:48.783Z,981.2
2023-01-18T12:09:05.004Z,981.1
2023-01-18T12:10:21.259Z,981.2
2023-01-18T12:11:37.500Z,981.2
2023-01-18T12:12:52.754Z,981.2
2023-01-18T12:14:08.993Z,981.3
2023-01-18T12:15:25.236Z,981.3
2023-01-18T12:16:41.450Z,981.3
2023-01-18T12:17:57.689Z,981.3
2023-01-18T12:19:12.947Z,981.3
2023-01-18T12:20:29.213Z,981.4
2023-01-18T12:21:45.463Z,981.3
2023-01-18T12:23:01.707Z,981.3
2023-01-18T12:24:17.917Z,981.4
2023-01-18T12:25:34.145Z,981.4
2023-01-18T12:26:50.430Z,981.4
2023-01-18T12:28:06.629Z,981.4
2023-01-18T12:29:22.903Z,981.4
2023-01-18T12:30:39.119Z,981.4
2023-01-18T12:31:55.352Z,981.4
2023-01-18T12:33:11.626Z,981.4
2023-01-18T12:34:27.835Z,981.5
2023-01-18T12:35:43.121Z,981.6
2023-01-18T12:36:59.355Z,981.6
2023-01-18T12:38:15.596Z,981.6
2023-01-18T12:39:31.798Z,981.6
2023-01-18T12:40:48.070Z,981.6
2023-01-18T12:42:04.286Z,981.7
2023-01-18T12:43:20.520Z,981.7
2023-01-18T12:44:36.789Z,981.7
2023-01-18T12:45:53.003Z,981.8
2023-01-18T12:47:09.269Z,981.8
2023-01-18T12:48:25.493Z,981.8
2023-01-18T12:49:41.746Z,981.8
2023-01-18T12:50:57.989Z,981.8
2023-01-18T12:52:13.211Z,981.9
2023-01-18T12:53:29.460Z,981.9
2023-01-18T12:54:45.706Z,981.9
2023-01-18T12:56:01.933Z,981.9
2023-01-18T12:57:18.180Z,981.9
2023-01-18T12:58:34.409Z,981.9
2023-01-18T12:59:50.687Z,982
2023-01-18T13:01:06.894Z,982
2023-01-18T13:02:23.145Z,982
2023-01-18T13:03:39.401Z,982
2023-01-18T13:04:55.652Z,982
2023-01-18T13:06:11.881Z,982.1
2023-01-18T13:07:28.124Z,982.1
2023-01-18T13:08:43.346Z,982.1
2023-01-18T13:09:59.601Z,982.1
2023-01-18T13:11:15.859Z,982.1
2023-01-18T13:12:32.105Z,982.1
2023-01-18T13:13:48.305Z,982.1
2023-01-18T13:15:04.552Z,982.2
2023-01-18T13:16:20.791Z,982.2
2023-01-18T13:17:37.026Z,982.3
2023-01-18T13:18:53.308Z,982.3
2023-01-18T13:20:09.507Z,982.3
2023-01-18T13:21:25.776Z,982.3
2023-01-18T13:22:42.016Z,982.3
2023-01-18T13:23:58.270Z,982.3
2023-01-18T13:25:13.515Z,982.3
2023-01-18T13:26:29.755Z,982.3
2023-01-18T13:27:46.001Z,982.3
2023-01-18T13:29:02.235Z,982.4
2023-01-18T13:30:18.453Z,982.4
2023-01-18T13:31:34.712Z,982.4
2023-01-18T13:32:50.951Z,982.5
2023-01-18T13:34:07.164Z,982.5
2023-01-18T13:35:23.435Z,982.5
2023-01-18T13:36:39.675Z,982.5
2023-01-18T13:37:55.913Z,982.6
2023-01-18T13:39:12.119Z,982.6
2023-01-18T13:40:28.370Z,982.6
2023-01-18T13:41:43.644Z,982.6
2023-01-18T13:42:59.863Z,982.6
2023-01-18T13:44:16.096Z,982.6
2023-01-18T13:45:32.383Z,982.6
2023-01-18T13:46:48.587Z,982.6
2023-01-18T13:48:04.812Z,982.6
2023-01-18T13:49:21.052Z,982.7
2023-01-18T13:50:37.306Z,982.7
2023-01-18T13:51:53.533Z,982.7
2023-01-18T13:53:09.774Z,982.7
2023-01-18T13:54:26.028Z,982.7
2023-01-18T13:55:42.263Z,982.8
2023-01-18T13:56:58.490Z,982.8
2023-01-18T13:58:13.748Z,982.9
2023-01-18T13:59:30.011Z,982.9
2023-01-18T14:00:46.230Z,982.9
2023-01-18T14:02:02.472Z,982.9
2023-01-18T14:03:18.718Z,982.9
2023-01-18T14:04:34.950Z,982.9
2023-01-18T14:05:51.191Z,983
2023-01-18T14:07:07.425Z,983
2023-01-18T14:08:23.664Z,983
2023-01-18T14:09:39.913Z,983
2023-01-18T14:10:56.160Z,983.1
2023-01-18T14:12:12.409Z,983.1
2023-01-18T14:13:28.630Z,983.2
2023-01-18T14:14:43.877Z,983.1
2023-01-18T14:16:00.144Z,983.2
2023-01-18T14:17:16.360Z,983.2
2023-01-18T14:18:32.602Z,983.2
2023-01-18T14:19:48.862Z,983.2
2023-01-18T14:21:05.095Z,983.3
2023-01-18T14:22:21.325Z,983.3
2023-01-18T14:23:37.572Z,983.3
2023-01-18T14:24:53.812Z,983.3
2023-01-18T14:26:10.049Z,983.4
2023-01-18T14:27:26.277Z,983.4
2023-01-18T14:28:42.540Z,983.4
2023-01-18T14:29:58.779Z,983.4
2023-01-18T14:31:14.013Z,983.4
2023-01-18T14:32:30.285Z,983.4
2023-01-18T14:33:46.508Z,983.5
2023-01-18T14:35:02.730Z,983.6
2023-01-18T14:36:18.985Z,983.6
2023-01-18T14:37:35.229Z,983.6
2023-01-18T14:38:51.469Z,983.7
2023-01-18T14:40:07.711Z,983.7
2023-01-18T14:41:23.945Z,983.7
2023-01-18T14:42:40.177Z,983.7
2023-01-18T14:43:56.419Z,983.8
2023-01-18T14:45:12.652Z,983.8
2023-01-18T14:46:28.898Z,983.8
2023-01-18T14:47:44.155Z,983.9
2023-01-18T14:49:00.401Z,983.9
2023-01-18T14:50:16.627Z,983.9
2023-01-18T14:51:32.863Z,983.9
2023-01-18T14:52:49.104Z,983.9
2023-01-18T14:54:05.360Z,984
2023-01-18T14:55:21.582Z,984
2023-01-18T14:56:37.836Z,984
2023-01-18T14:57:54.070Z,984.1
2023-01-18T14:59:10.306Z,984.1
2023-01-18T15:00:26.562Z,984.1
2023-01-18T15:01:42.805Z,984.2
2023-01-18T15:02:59.038Z,984.2
2023-01-18T15:04:14.291Z,984.2
2023-01-18T15:05:30.529Z,984.2
2023-01-18T15:06:46.760Z,984.2
2023-01-18T15:08:02.995Z,984.3
2023-01-18T15:09:19.260Z,984.3
2023-01-18T15:10:35.484Z,984.3
2023-01-18T15:11:51.747Z,984.3
2023-01-18T15:13:07.963Z,984.3
2023-01-18T15:14:24.212Z,984.4
2023-01-18T15:15:40.461Z,984.4
2023-01-18T15:16:56.691Z,984.4
2023-01-18T15:18:12.000Z,984.4
2023-01-18T15:19:29.171Z,984.5
2023-01-18T15:20:44.409Z,984.5
2023-01-18T15:22:00.651Z,984.5
2023-01-18T15:23:16.889Z,984.5
2023-01-18T15:24:33.136Z,984.5
2023-01-18T15:25:49.374Z,984.5
2023-01-18T15:27:05.608Z,984.6
2023-01-18T15:28:21.856Z,984.6
2023-01-18T15:29:38.105Z,984.6
2023-01-18T15:30:54.367Z,984.7
2023-01-18T15:32:10.582Z,984.7
2023-01-18T15:33:26.809Z,984.7
2023-01-18T15:34:43.063Z,984.8
2023-01-18T15:35:59.321Z,984.8
2023-01-18T15:37:14.553Z,984.8
2023-01-18T15:38:30.808Z,984.9
2023-01-18T15:39:47.029Z,984.9
2023-01-18T15:41:03.262Z,984.9
2023-01-18T15:42:19.515Z,984.9
2023-01-18T15:43:35.773Z,985
2023-01-18T15:44:51.997Z,985
2023-01-18T15:46:08.226Z,985
2023-01-18T15:47:24.477Z,985.1
2023-01-18T15:48:40.721Z,985.1
2023-01-18T15:49:56.945Z,985.1
2023-01-18T15:51:13.201Z,985.1
2023-01-18T15:52:29.424Z,985.2
2023-01-18T15:53:44.680Z,985.1
2023-01-18T15:55:00.943Z,985.2
2023-01-18T15:56:17.174Z,985.2
2023-01-18T15:57:33.405Z,985.3
2023-01-18T15:58:49.663Z,985.2
2023-01-18T16:00:05.945Z,985.2
2023-01-18T16:01:22.172Z,985.3
2023-01-18T16:02:38.430Z,985.3
2023-01-18T16:03:54.683Z,985.3
2023-01-18T16:05:10.954Z,985.3
2023-01-18T16:06:27.208Z,985.4
2023-01-18T16:07:43.426Z,985.3
2023-01-18T16:08:59.676Z,985.4
2023-01-18T16:10:14.975Z,985.4
2023-01-18T16:11:31.277Z,985.4
2023-01-18T16:12:47.578Z,985.4
2023-01-18T16:14:03.861Z,985.4
2023-01-18T16:15:20.162Z,985.5
2023-01-18T16:16:36.448Z,985.5
2023-01-18T16:17:52.748Z,985.5
2023-01-18T16:19:09.049Z,985.6
2023-01-18T16:20:25.329Z,985.7
2023-01-18T16:21:41.628Z,985.6
2023-01-18T16:22:57.923Z,985.6
2023-01-18T16:24:14.212Z,985.6